createdAt,value
2019-03-17T00:02:08.092Z,95.30
2019-03-17T00:04:36.080Z,95.30
2019-03-17T00:07:04.045Z,95.30
2019-03-17T00:09:32.645Z,95.40
2019-03-17T00:12:00.600Z,95.60
2019-03-17T00:14:28.754Z,95.70
2019-03-17T00:16:56.488Z,95.90
2019-03-17T00:19:24.057Z,95.90
2019-03-17T00:21:52.327Z,96.10
2019-03-17T00:24:20.314Z,96.20
2019-03-17T00:26:49.344Z,96.40
2019-03-17T00:29:17.299Z,96.30
2019-03-17T00:31:45.432Z,96.20
2019-03-17T00:34:13.200Z,96.10
2019-03-17T00:36:41.287Z,96.10
2019-03-17T00:39:08.939Z,96.20
2019-03-17T00:41:37.000Z,96.40
2019-03-17T00:44:04.996Z,96.50
2019-03-17T00:46:36.130Z,96.60
2019-03-17T00:49:03.937Z,96.50
2019-03-17T00:51:31.987Z,96.40
2019-03-17T00:53:59.856Z,96.40
2019-03-17T00:56:27.742Z,96.60
2019-03-17T00:58:55.486Z,96.80
2019-03-17T01:01:23.195Z,96.60
2019-03-17T01:03:51.059Z,96.70
2019-03-17T01:06:18.998Z,96.60
2019-03-17T01:08:46.877Z,96.60
2019-03-17T01:11:15.090Z,96.70
2019-03-17T01:13:43.071Z,96.40
2019-03-17T01:16:11.183Z,96.30
2019-03-17T01:18:39.461Z,96.10
2019-03-17T01:21:07.375Z,96.20
2019-03-17T01:23:35.111Z,96.30
2019-03-17T01:26:03.043Z,96.10
2019-03-17T01:28:30.705Z,96.00
2019-03-17T01:30:58.327Z,96.00
2019-03-17T01:33:26.355Z,96.20
2019-03-17T01:35:54.386Z,96.20
2019-03-17T01:38:22.336Z,96.30
2019-03-17T01:40:50.218Z,96.30
2019-03-17T01:43:18.057Z,96.30
2019-03-17T01:45:46.170Z,96.30
2019-03-17T01:48:13.984Z,96.30
2019-03-17T01:50:41.927Z,96.30
2019-03-17T01:53:09.685Z,96.30
2019-03-17T01:55:37.451Z,96.40
2019-03-17T01:58:05.282Z,96.40
2019-03-17T02:00:33.997Z,96.30
2019-03-17T02:03:01.856Z,96.20
2019-03-17T02:05:29.709Z,96.30
2019-03-17T02:07:57.443Z,96.30
2019-03-17T02:10:25.258Z,96.50
2019-03-17T02:12:53.149Z,96.50
2019-03-17T02:15:21.417Z,96.40
2019-03-17T02:17:49.597Z,96.20
2019-03-17T02:20:17.190Z,96.50
2019-03-17T02:22:44.815Z,96.60
2019-03-17T02:25:12.612Z,96.70
2019-03-17T02:27:40.318Z,96.80
2019-03-17T02:30:09.054Z,96.90
2019-03-17T02:32:36.898Z,96.90
2019-03-17T02:35:05.289Z,96.90
2019-03-17T02:37:33.303Z,96.80
2019-03-17T02:40:01.150Z,96.70
2019-03-17T02:42:28.888Z,96.70
2019-03-17T02:44:56.748Z,96.30
2019-03-17T02:47:24.640Z,96.20
2019-03-17T02:49:52.449Z,96.00
2019-03-17T02:52:20.101Z,96.10
2019-03-17T02:54:47.733Z,96.20
2019-03-17T02:57:16.346Z,96.20
2019-03-17T02:59:44.295Z,96.20
2019-03-17T03:02:11.965Z,96.30
2019-03-17T03:04:39.745Z,96.30
2019-03-17T03:07:07.664Z,96.20
2019-03-17T03:09:35.650Z,96.10
2019-03-17T03:12:03.597Z,96.10
2019-03-17T03:14:32.005Z,96.00
2019-03-17T03:16:59.885Z,96.00
2019-03-17T03:19:28.501Z,96.10
2019-03-17T03:21:56.336Z,96.00
2019-03-17T03:24:24.384Z,96.20
2019-03-17T03:26:52.058Z,96.50
2019-03-17T03:29:19.834Z,96.80
2019-03-17T03:31:47.879Z,96.90
2019-03-17T03:34:15.850Z,96.60
2019-03-17T03:36:44.675Z,96.90
2019-03-17T03:39:37.234Z,96.90
2019-03-17T03:42:20.311Z,97.00
2019-03-17T03:44:48.611Z,97.10
2019-03-17T03:47:16.895Z,96.80
2019-03-17T03:49:45.271Z,96.90
2019-03-17T03:52:16.768Z,96.70
2019-03-17T03:54:44.392Z,96.90
2019-03-17T03:57:13.895Z,96.90
2019-03-17T03:59:41.846Z,96.90
2019-03-17T04:02:10.886Z,96.80
2019-03-17T04:04:38.457Z,96.80
2019-03-17T04:07:06.271Z,96.90
2019-03-17T04:09:37.446Z,96.80
2019-03-17T04:12:06.773Z,96.90
2019-03-17T04:14:36.352Z,96.90
2019-03-17T04:17:04.713Z,96.90
2019-03-17T04:19:32.751Z,96.40
2019-03-17T04:22:07.439Z,96.50
2019-03-17T04:24:36.264Z,96.30
2019-03-17T04:27:04.265Z,96.40
2019-03-17T04:29:32.050Z,96.50
2019-03-17T04:32:00.050Z,96.80
2019-03-17T04:34:27.931Z,96.90
2019-03-17T04:36:55.919Z,96.90
2019-03-17T04:39:23.581Z,96.90
2019-03-17T04:41:51.765Z,96.90
2019-03-17T04:44:21.074Z,96.80
2019-03-17T04:46:49.328Z,96.80
2019-03-17T04:49:17.305Z,97.00
2019-03-17T04:51:45.382Z,97.00
2019-03-17T04:54:13.190Z,97.10
2019-03-17T04:56:40.982Z,97.30
2019-03-17T04:59:08.917Z,97.30
2019-03-17T05:01:37.038Z,97.00
2019-03-17T05:04:05.161Z,96.90
2019-03-17T05:06:34.146Z,96.90
2019-03-17T05:09:01.850Z,97.00
2019-03-17T05:11:29.787Z,97.30
2019-03-17T05:13:57.800Z,97.40
2019-03-17T05:16:25.645Z,97.50
2019-03-17T05:18:53.397Z,97.50
2019-03-17T05:21:21.065Z,97.40
2019-03-17T05:23:49.048Z,97.40
2019-03-17T05:26:16.813Z,97.30
2019-03-17T05:28:44.857Z,97.20
2019-03-17T05:31:13.279Z,97.20
2019-03-17T05:33:41.582Z,97.10
2019-03-17T05:36:09.987Z,97.10
2019-03-17T05:38:39.203Z,97.00
2019-03-17T05:41:07.593Z,97.10
2019-03-17T05:43:35.945Z,97.20
2019-03-17T05:46:04.978Z,97.20
2019-03-17T05:48:33.359Z,97.10
2019-03-17T05:51:01.319Z,97.20
2019-03-17T05:53:29.182Z,97.40
2019-03-17T05:55:57.198Z,97.20
2019-03-17T05:58:24.778Z,97.20
2019-03-17T06:00:52.658Z,97.30
2019-03-17T06:03:20.492Z,97.40
2019-03-17T06:05:48.402Z,97.50
2019-03-17T06:08:16.457Z,97.70
2019-03-17T06:10:44.209Z,98.00
2019-03-17T06:13:12.153Z,97.80
2019-03-17T06:15:45.727Z,97.80
2019-03-17T06:18:16.337Z,97.80
2019-03-17T06:20:44.623Z,97.70
2019-03-17T06:23:18.784Z,97.80
2019-03-17T06:25:59.979Z,97.70
2019-03-17T06:28:27.993Z,97.00
2019-03-17T06:31:07.823Z,96.40
2019-03-17T06:33:48.469Z,96.40
2019-03-17T06:36:19.447Z,96.20
2019-03-17T06:38:57.988Z,95.70
2019-03-17T06:41:31.594Z,95.40
2019-03-17T06:44:12.432Z,95.20
2019-03-17T06:46:42.875Z,95.00
2019-03-17T06:49:10.590Z,95.00
2019-03-17T06:51:38.420Z,95.00
2019-03-17T06:54:06.060Z,95.10
2019-03-17T06:56:36.986Z,95.30
2019-03-17T06:59:04.407Z,95.00
2019-03-17T07:01:44.831Z,94.80
2019-03-17T07:04:23.322Z,94.80
2019-03-17T07:06:51.341Z,94.70
2019-03-17T07:09:24.293Z,94.50
2019-03-17T07:11:52.053Z,95.00
2019-03-17T07:14:20.391Z,94.40
2019-03-17T07:16:48.496Z,94.20
2019-03-17T07:19:16.248Z,93.70
2019-03-17T07:21:44.061Z,93.80
2019-03-17T07:24:13.750Z,93.80
2019-03-17T07:26:41.607Z,93.40
2019-03-17T07:29:18.187Z,93.00
2019-03-17T07:31:50.376Z,93.00
2019-03-17T07:34:22.341Z,92.90
2019-03-17T07:36:53.832Z,92.70
2019-03-17T07:39:24.831Z,92.90
2019-03-17T07:41:58.517Z,92.90
2019-03-17T07:44:33.432Z,92.30
2019-03-17T07:47:51.237Z,91.80
2019-03-17T07:50:23.104Z,90.70
2019-03-17T07:53:50.681Z,89.40
2019-03-17T08:00:01.140Z,85.50
2019-03-17T08:02:34.137Z,82.70
2019-03-17T08:06:08.966Z,83.90
2019-03-17T08:09:25.451Z,82.40
2019-03-17T08:12:47.473Z,80.40
2019-03-17T08:15:16.089Z,80.60
2019-03-17T08:18:05.534Z,80.90
2019-03-17T08:21:00.735Z,80.10
2019-03-17T08:23:38.503Z,76.10
2019-03-17T08:26:38.962Z,71.40
2019-03-17T08:29:16.050Z,67.40
2019-03-17T08:31:48.674Z,63.50
2019-03-17T08:34:37.468Z,63.50
2019-03-17T08:37:27.499Z,59.80
2019-03-17T08:40:11.205Z,58.10
2019-03-17T08:42:39.513Z,56.80
2019-03-17T08:45:10.564Z,53.30
2019-03-17T08:47:41.338Z,53.60
2019-03-17T08:50:10.900Z,50.60
2019-03-17T08:52:39.070Z,48.00
2019-03-17T08:55:10.277Z,49.60
2019-03-17T08:58:00.061Z,48.60
2019-03-17T09:00:36.000Z,47.60
2019-03-17T09:03:11.462Z,45.40
2019-03-17T09:06:06.373Z,47.30
2019-03-17T09:08:36.328Z,46.10
2019-03-17T09:11:07.626Z,44.60
2019-03-17T09:13:41.259Z,47.00
2019-03-17T09:16:11.222Z,46.80
2019-03-17T09:18:41.989Z,45.90
2019-03-17T09:21:10.861Z,46.80
2019-03-17T09:23:42.547Z,47.00
2019-03-17T09:26:16.703Z,46.40
2019-03-17T09:28:46.777Z,45.10
2019-03-17T09:31:27.039Z,43.50
2019-03-17T09:34:01.427Z,42.20
2019-03-17T09:36:45.678Z,42.70
2019-03-17T09:39:15.956Z,43.70
2019-03-17T09:41:56.127Z,44.00
2019-03-17T09:44:49.946Z,44.00
2019-03-17T09:47:46.211Z,43.10
2019-03-17T09:50:18.250Z,43.20
2019-03-17T09:52:50.593Z,42.60
2019-03-17T09:56:11.379Z,43.30
2019-03-17T09:59:08.371Z,43.70
2019-03-17T10:02:43.633Z,43.80
2019-03-17T10:06:00.374Z,44.90
2019-03-17T10:08:31.441Z,43.50
2019-03-17T10:11:00.451Z,44.90
2019-03-17T10:13:39.909Z,45.20
2019-03-17T10:16:17.519Z,44.00
2019-03-17T10:18:59.124Z,43.70
2019-03-17T10:21:36.011Z,43.30
2019-03-17T10:24:14.029Z,45.20
2019-03-17T10:26:45.606Z,44.20
2019-03-17T10:29:19.363Z,43.40
2019-03-17T10:31:50.050Z,43.10
2019-03-17T10:34:36.873Z,43.80
2019-03-17T10:37:09.722Z,43.10
2019-03-17T10:39:40.870Z,42.80
2019-03-17T10:42:26.529Z,44.20
2019-03-17T10:45:01.620Z,43.50
2019-03-17T10:47:39.054Z,43.70
2019-03-17T10:50:12.382Z,43.10
2019-03-17T10:52:50.825Z,42.60
2019-03-17T10:55:25.953Z,42.40
2019-03-17T10:57:59.345Z,41.80
2019-03-17T11:00:29.306Z,43.40
2019-03-17T11:03:04.706Z,43.80
2019-03-17T11:06:37.522Z,44.60
2019-03-17T11:09:03.952Z,41.10
2019-03-17T11:12:34.572Z,41.60
2019-03-17T11:15:46.800Z,42.80
2019-03-17T11:18:55.066Z,41.80
2019-03-17T11:21:22.926Z,42.00
2019-03-17T11:23:50.820Z,41.30
2019-03-17T11:26:19.738Z,41.90
2019-03-17T11:28:49.273Z,42.00
2019-03-17T11:31:17.085Z,42.00
2019-03-17T11:33:44.789Z,42.00
2019-03-17T11:36:15.303Z,43.90
2019-03-17T11:38:42.961Z,43.00
2019-03-17T11:41:12.169Z,43.40
2019-03-17T11:43:50.284Z,43.30
2019-03-17T11:46:18.242Z,43.00
2019-03-17T11:48:46.155Z,42.90
2019-03-17T11:51:13.861Z,43.10
2019-03-17T11:53:42.035Z,43.70
2019-03-17T11:56:10.017Z,44.00
2019-03-17T11:58:38.429Z,43.10
2019-03-17T12:01:09.616Z,43.20
2019-03-17T12:03:39.516Z,43.30
2019-03-17T12:06:10.679Z,42.70
2019-03-17T12:08:38.448Z,43.40
2019-03-17T12:11:12.346Z,44.30
2019-03-17T12:13:42.219Z,43.90
2019-03-17T12:16:09.978Z,43.70
2019-03-17T12:18:37.744Z,43.80
2019-03-17T12:21:11.439Z,44.00
2019-03-17T12:23:39.156Z,43.10
2019-03-17T12:26:07.005Z,43.60
2019-03-17T12:28:38.236Z,44.20
2019-03-17T12:31:05.994Z,44.10
2019-03-17T12:33:33.779Z,44.60
2019-03-17T12:36:06.322Z,44.50
2019-03-17T12:38:42.840Z,43.90
2019-03-17T12:41:11.126Z,45.20
2019-03-17T12:43:47.913Z,45.30
2019-03-17T12:46:16.113Z,46.60
2019-03-17T12:48:47.917Z,47.60
2019-03-17T12:51:15.531Z,47.60
2019-03-17T12:53:43.805Z,47.60
2019-03-17T12:56:14.821Z,48.40
2019-03-17T12:58:42.775Z,48.30
2019-03-17T13:02:09.071Z,48.80
2019-03-17T13:16:50.138Z,52.10
2019-03-17T13:32:38.930Z,54.80
2019-03-17T13:43:35.489Z,62.60
2019-03-17T13:46:35.544Z,64.10
2019-03-17T13:58:05.673Z,66.80
2019-03-17T14:07:32.957Z,78.80
2019-03-17T14:10:18.843Z,86.70
2019-03-17T14:13:29.141Z,91.60
2019-03-17T14:16:18.837Z,92.90
2019-03-17T14:18:50.681Z,93.90
2019-03-17T14:21:50.284Z,94.20
2019-03-17T14:24:18.383Z,94.60
2019-03-17T14:26:57.859Z,94.50
2019-03-17T14:29:27.692Z,94.30
2019-03-17T14:32:56.185Z,94.70
2019-03-17T14:36:30.631Z,95.00
2019-03-17T14:50:34.166Z,95.60
2019-03-17T14:53:14.441Z,95.30
2019-03-17T14:56:32.431Z,95.30
2019-03-17T15:06:25.357Z,96.00
2019-03-17T15:17:41.024Z,95.80
2019-03-17T15:20:58.357Z,96.10
2019-03-17T15:27:05.536Z,96.70
2019-03-17T15:37:08.981Z,96.60
2019-03-17T15:39:37.176Z,96.40
2019-03-17T15:42:06.404Z,96.50
2019-03-17T15:44:34.194Z,96.80
2019-03-17T15:47:23.282Z,96.90
2019-03-17T15:49:51.186Z,96.50
2019-03-17T15:52:19.493Z,96.50
2019-03-17T15:54:50.242Z,96.80
2019-03-17T15:57:23.517Z,96.50
2019-03-17T15:59:51.941Z,96.60
2019-03-17T16:02:20.147Z,96.50
2019-03-17T16:04:50.786Z,96.60
2019-03-17T16:07:18.838Z,96.60
2019-03-17T16:09:47.284Z,96.90
2019-03-17T16:12:15.539Z,97.00
2019-03-17T16:14:54.397Z,97.00
2019-03-17T16:17:22.453Z,97.00
2019-03-17T16:19:50.160Z,96.50
2019-03-17T16:22:28.477Z,96.30
2019-03-17T16:24:56.505Z,96.30
2019-03-17T16:27:25.260Z,96.00
2019-03-17T16:29:53.351Z,96.00
2019-03-17T16:32:21.717Z,96.40
2019-03-17T16:34:49.435Z,96.40
2019-03-17T16:37:17.288Z,96.40
2019-03-17T16:39:44.957Z,96.30
2019-03-17T16:42:13.043Z,96.00
2019-03-17T16:44:42.034Z,96.30
2019-03-17T16:47:10.682Z,96.30
2019-03-17T16:49:38.492Z,96.40
2019-03-17T16:52:06.407Z,96.10
2019-03-17T16:54:41.430Z,96.40
2019-03-17T16:57:12.591Z,96.10
2019-03-17T16:59:41.475Z,96.20
2019-03-17T17:02:12.415Z,96.20
2019-03-17T17:04:40.829Z,96.20
2019-03-17T17:07:08.913Z,95.90
2019-03-17T17:09:37.655Z,95.60
2019-03-17T17:12:05.829Z,96.30
2019-03-17T17:14:33.850Z,95.60
2019-03-17T17:17:01.971Z,95.70
2019-03-17T17:19:31.112Z,96.00
2019-03-17T17:22:08.273Z,95.80
2019-03-17T17:24:36.346Z,96.00
2019-03-17T17:27:07.349Z,95.70
2019-03-17T17:29:35.878Z,96.00
2019-03-17T17:32:04.561Z,95.90
2019-03-17T17:34:32.839Z,96.30
2019-03-17T17:37:01.429Z,96.30
2019-03-17T17:40:17.317Z,96.50
2019-03-17T17:42:47.667Z,96.70
2019-03-17T17:45:19.041Z,97.00
2019-03-17T17:47:46.963Z,97.00
2019-03-17T17:50:15.680Z,96.90
2019-03-17T17:52:43.453Z,96.70
2019-03-17T17:55:11.244Z,96.60
2019-03-17T17:57:39.164Z,97.00
2019-03-17T18:00:07.897Z,96.70
2019-03-17T18:02:40.732Z,97.00
2019-03-17T18:05:09.006Z,96.50
2019-03-17T18:07:36.891Z,96.60
2019-03-17T18:10:05.038Z,96.70
2019-03-17T18:12:59.266Z,96.90
2019-03-17T18:15:27.095Z,96.70
2019-03-17T18:17:54.622Z,96.40
2019-03-17T18:20:22.131Z,96.40
2019-03-17T18:22:50.748Z,96.10
2019-03-17T18:25:19.134Z,95.60
2019-03-17T18:27:46.751Z,95.70
2019-03-17T18:30:15.159Z,95.30
2019-03-17T18:32:42.668Z,94.90
2019-03-17T18:35:13.320Z,94.70
2019-03-17T18:37:41.062Z,94.70
2019-03-17T18:40:10.208Z,94.90
2019-03-17T18:42:37.768Z,94.80
2019-03-17T18:45:05.704Z,94.70
2019-03-17T18:47:35.684Z,94.60
2019-03-17T18:50:06.218Z,94.60
2019-03-17T18:52:33.791Z,96.10
2019-03-17T18:55:01.891Z,96.70
2019-03-17T18:57:32.468Z,94.50
2019-03-17T19:00:00.131Z,94.10
2019-03-17T19:02:27.749Z,94.40
2019-03-17T19:05:00.733Z,94.50
2019-03-17T19:07:28.518Z,94.60
2019-03-17T19:09:56.129Z,94.50
2019-03-17T19:12:23.789Z,94.70
2019-03-17T19:14:51.457Z,94.50
2019-03-17T19:17:19.072Z,94.70
2019-03-17T19:19:49.010Z,94.90
2019-03-17T19:22:16.737Z,94.60
2019-03-17T19:24:49.821Z,94.70
2019-03-17T19:27:17.656Z,94.60
2019-03-17T19:29:53.636Z,94.50
2019-03-17T19:32:22.978Z,94.50
2019-03-17T19:34:51.524Z,94.60
2019-03-17T19:37:22.238Z,94.70
2019-03-17T19:39:54.909Z,94.60
2019-03-17T19:42:23.042Z,94.50
2019-03-17T19:44:50.534Z,94.60
2019-03-17T19:47:18.158Z,94.70
2019-03-17T19:49:46.162Z,94.70
2019-03-17T19:52:16.198Z,94.50
2019-03-17T19:54:45.449Z,94.70
2019-03-17T19:57:13.330Z,94.60
2019-03-17T19:59:41.031Z,94.70
2019-03-17T20:02:14.077Z,94.60
2019-03-17T20:04:43.595Z,94.50
2019-03-17T20:07:11.984Z,94.40
2019-03-17T20:09:48.250Z,94.50
2019-03-17T20:12:15.868Z,94.40
2019-03-17T20:14:43.517Z,94.70
2019-03-17T20:17:11.437Z,94.80
2019-03-17T20:19:39.303Z,94.80
2019-03-17T20:22:07.045Z,94.60
2019-03-17T20:24:34.621Z,94.60
2019-03-17T20:27:02.236Z,94.40
2019-03-17T20:29:29.997Z,94.20
2019-03-17T20:31:57.641Z,94.20
2019-03-17T20:34:25.304Z,94.30
2019-03-17T20:36:55.842Z,94.20
2019-03-17T20:39:38.107Z,94.10
2019-03-17T20:42:09.726Z,93.90
2019-03-17T20:44:37.511Z,93.70
2019-03-17T20:47:05.220Z,93.60
2019-03-17T20:49:32.733Z,93.20
2019-03-17T20:52:04.162Z,93.20
2019-03-17T20:54:35.617Z,93.10
2019-03-17T20:57:04.511Z,93.30
2019-03-17T20:59:32.284Z,93.60
2019-03-17T21:02:01.401Z,93.40
2019-03-17T21:04:30.628Z,93.80
2019-03-17T21:06:58.790Z,93.90
2019-03-17T21:09:27.624Z,93.90
2019-03-17T21:11:58.250Z,93.90
2019-03-17T21:14:25.961Z,94.00
2019-03-17T21:16:53.854Z,94.20
2019-03-17T21:19:29.992Z,94.10
2019-03-17T21:21:57.519Z,94.30
2019-03-17T21:24:26.212Z,94.30
2019-03-17T21:26:55.906Z,94.60
2019-03-17T21:29:25.593Z,94.70
2019-03-17T21:31:53.530Z,94.60
2019-03-17T21:34:21.432Z,94.80
2019-03-17T21:36:51.957Z,94.90
2019-03-17T21:39:25.228Z,95.20
2019-03-17T21:41:55.347Z,95.10
2019-03-17T21:44:25.845Z,95.10
2019-03-17T21:47:00.511Z,95.20
2019-03-17T21:49:33.997Z,95.30
2019-03-17T21:55:03.636Z,95.40
2019-03-17T21:57:36.694Z,95.70
2019-03-17T22:00:08.460Z,95.70
2019-03-17T22:02:40.470Z,95.60
2019-03-17T22:05:14.151Z,95.50
2019-03-17T22:07:50.675Z,95.60
2019-03-17T22:10:25.568Z,95.60
2019-03-17T22:12:59.253Z,95.60
2019-03-17T22:15:29.625Z,95.60
2019-03-17T22:17:57.300Z,95.40
2019-03-17T22:20:30.631Z,95.10
2019-03-17T22:22:58.157Z,95.10
2019-03-17T22:25:28.477Z,95.30
2019-03-17T22:28:08.126Z,95.30
2019-03-17T22:30:30.268Z,95.40
2019-03-17T22:32:57.993Z,95.20
2019-03-17T22:35:25.838Z,95.30
2019-03-17T22:37:54.417Z,95.20
2019-03-17T22:40:26.934Z,95.40
2019-03-17T22:42:57.931Z,95.40
2019-03-17T22:45:26.707Z,95.40
2019-03-17T22:47:54.465Z,95.20
2019-03-17T22:50:26.483Z,95.10
2019-03-17T22:52:54.229Z,95.00
2019-03-17T22:55:22.456Z,95.00
2019-03-17T22:57:50.304Z,95.50
2019-03-17T23:00:21.193Z,95.40
2019-03-17T23:02:50.439Z,95.50
2019-03-17T23:05:19.851Z,95.60
2019-03-17T23:07:49.464Z,95.80
2019-03-17T23:10:17.014Z,95.50
2019-03-17T23:12:45.225Z,95.60
2019-03-17T23:15:12.947Z,95.50
2019-03-17T23:17:43.977Z,95.40
2019-03-17T23:20:12.101Z,95.40
2019-03-17T23:22:42.178Z,95.20
2019-03-17T23:25:11.244Z,95.20
2019-03-17T23:27:39.670Z,95.30
2019-03-17T23:30:08.030Z,95.20
2019-03-17T23:32:35.599Z,95.00
2019-03-17T23:35:03.531Z,95.20
2019-03-17T23:37:31.044Z,95.30
2019-03-17T23:40:00.397Z,95.10
2019-03-17T23:42:28.172Z,95.10
2019-03-17T23:44:58.043Z,95.00
2019-03-17T23:47:25.673Z,95.00
2019-03-17T23:49:53.333Z,94.90
2019-03-17T23:52:21.202Z,94.90
2019-03-17T23:54:48.713Z,94.80
2019-03-17T23:57:16.341Z,95.00
2019-03-17T23:59:43.966Z,95.10
